General Lucio Blanco International Airport
MMRX : now visible

Airfield :











YOU CAN JOIN US ON...

 
LOGIN :

Register | Disclaimer

   EN    FR    IT 

 









Legend :    VFR   Marginal VFR   IFR   Intensive IFR   Very Intensive IFR
Visi :
Ceiling :
>= 8 km
>= 3000ft
5 to 8 km
1000 to 3000 ft
1500m to 5 km
500 to 1000 ft
800 to 1500m
200 to 500 ft
< 800m
< 200 ft
Symbols :   Thunderstorms  Fog  Heavy snow  Heavy precipitations  Wind > 20 kt






- Airport Elevation : 139 ft
- IATA code : REX


MMRX - General Lucio Blanco International

CURRENT METAR :
  • 172343Z 04008KT 8SM SCT035 BKN110 BKN250 30/21 A2992 RMK SLP127 56001 954 8/432

EXPIRED METARs :
  • 172249Z 09006KT 8SM SCT035 SCT090 BKN250 30/20 A2991 RMK 8/432
  • 172143Z 15004KT 8SM SCT035 BKN090 OVC250 30/22 A2992 RMK 8/463

TAF TAF MMRX
Valid from the 17 at 18:00 until the 18 at 18:00 UTC


171732Z 1718/1818 06015KT P6SM SCT025 BKN120
TEMPO 1719/1722 5SM TSRA BKN020CB BKN200
FM180200 09008KT P6SM SCT020 SCT200
BECMG 1817/1818 36010KT
MMFR FIR / North America



MET'MAP, your aeronautical weather chart ! - Copyright ORBIFLY December 2007 - Disclaimer

ORBIFLY MET'MAP TEAM :

Programming & Development : Alexandra Zaïnal
Concept & original design : Baudouin d'Aumeries
Assistance for programming : Marc-Olivier Méhu
Technical & hardware support : Manuel Goepfert

Contact : metmap@orbifly.com




SOURCES & CREDITS :

   NOAA       Earth
Advisory